Time;durP1;ratioP1;P1;durP2;ratioP2;P2;SDS_P1;SDS_P2;PMS_P1;PMS_P2;Temp;Humidity;BMP_temperature;BMP_pressure;BME280_temperature;BME280_humidity;BME280_pressure;Samples;Min_cycle;Max_cycle;Signal;HPM_P1;HPM_P2
2024/03/11 00:01:03;;;;;;;26.07;24.87;;;22.10;51.10;;;;;;5006006;28;20514;-64
2024/03/11 00:03:31;;;;;;;26.37;25.17;;;22.00;51.10;;;;;;5006020;28;20450;-64
2024/03/11 00:05:58;;;;;;;25.47;24.37;;;22.00;51.10;;;;;;5015158;28;20493;-64
2024/03/11 00:08:25;;;;;;;25.97;24.77;;;22.00;51.20;;;;;;5013862;28;20446;-64
2024/03/11 00:10:59;;;;;;;24.40;23.33;;;22.10;51.30;;;;;;5014137;28;20438;-64
2024/03/11 00:13:32;;;;;;;25.60;24.50;;;22.00;51.30;;;;;;5006781;28;20818;-64
2024/03/11 00:16:01;;;;;;;25.77;24.70;;;22.00;51.30;;;;;;5006068;28;20469;-64
2024/03/11 00:18:28;;;;;;;25.20;24.10;;;22.00;51.30;;;;;;5019914;28;20942;-64
2024/03/11 00:20:56;;;;;;;25.60;24.40;;;22.00;51.30;;;;;;5013639;28;21033;-64
2024/03/11 00:23:23;;;;;;;26.07;24.87;;;22.00;51.30;;;;;;5013583;28;20928;-64
2024/03/11 00:25:50;;;;;;;24.70;23.70;;;22.00;51.30;;;;;;5013870;28;20466;-64
2024/03/11 00:28:17;;;;;;;24.67;23.73;;;22.00;51.30;;;;;;5013916;28;20449;-64
2024/03/11 00:30:45;;;;;;;24.30;23.30;;;22.00;51.30;;;;;;5005660;28;20461;-64
2024/03/11 00:33:13;;;;;;;24.70;23.70;;;22.00;51.30;;;;;;5003002;28;20496;-64
2024/03/11 00:35:43;;;;;;;25.03;23.93;;;22.00;51.30;;;;;;5002047;28;20466;-64
2024/03/11 00:38:10;;;;;;;25.20;24.10;;;22.00;51.40;;;;;;5004190;28;20522;-64
2024/03/11 00:40:38;;;;;;;24.93;23.73;;;22.00;51.40;;;;;;5013750;28;20450;-64
2024/03/11 00:43:05;;;;;;;25.10;23.80;;;22.00;51.40;;;;;;5003651;28;20485;-64
2024/03/11 00:45:32;;;;;;;24.10;23.10;;;22.00;51.40;;;;;;5002060;28;20463;-64
2024/03/11 00:47:59;;;;;;;24.40;23.30;;;22.00;51.70;;;;;;5010428;28;20939;-63
2024/03/11 00:50:27;;;;;;;24.10;23.10;;;22.00;51.50;;;;;;5013581;28;20445;-63
2024/03/11 00:52:54;;;;;;;24.93;23.83;;;22.00;51.60;;;;;;5013255;28;20454;-63
2024/03/11 00:55:21;;;;;;;25.13;24.03;;;22.00;51.50;;;;;;5005220;28;20453;-63
2024/03/11 00:57:49;;;;;;;25.37;24.27;;;21.90;51.50;;;;;;5020600;28;20448;-63
2024/03/11 01:00:16;;;;;;;25.67;24.47;;;21.90;51.40;;;;;;5013863;28;23031;-64
2024/03/11 01:02:43;;;;;;;24.60;23.50;;;22.00;51.60;;;;;;5013132;28;20485;-64
2024/03/11 01:05:10;;;;;;;24.70;23.60;;;21.90;51.50;;;;;;5012573;28;20458;-63
2024/03/11 01:07:38;;;;;;;23.87;22.77;;;21.90;51.50;;;;;;5013018;28;20442;-64
2024/03/11 01:10:05;;;;;;;25.20;24.00;;;21.90;51.60;;;;;;5013171;28;20442;-64
2024/03/11 01:12:32;;;;;;;24.37;23.37;;;21.90;51.50;;;;;;5013057;28;20942;-64
2024/03/11 01:14:59;;;;;;;23.67;22.60;;;21.90;51.50;;;;;;5012529;28;20442;-64
2024/03/11 01:17:25;;;;;;;24.93;23.83;;;21.90;51.60;;;;;;5012788;28;20469;-63
2024/03/11 01:19:53;;;;;;;24.03;23.03;;;21.90;51.60;;;;;;5012437;28;20453;-64
2024/03/11 01:22:19;;;;;;;24.00;22.90;;;21.90;51.60;;;;;;5012663;28;20513;-63
2024/03/11 01:24:47;;;;;;;25.50;24.27;;;21.90;51.70;;;;;;5012282;28;20442;-63
2024/03/11 01:27:14;;;;;;;24.53;23.53;;;21.90;51.70;;;;;;5012316;28;20470;-63
2024/03/11 01:29:41;;;;;;;24.60;23.50;;;21.90;51.70;;;;;;5014942;28;20442;-64
2024/03/11 01:32:08;;;;;;;24.47;23.37;;;21.90;51.70;;;;;;5012512;28;20446;-63
2024/03/11 01:34:35;;;;;;;24.23;23.23;;;21.90;51.70;;;;;;5004111;28;20939;-64
2024/03/11 01:37:02;;;;;;;25.87;24.67;;;21.90;51.70;;;;;;5003568;28;20481;-63
2024/03/11 01:39:42;;;;;;;23.90;23.00;;;21.90;51.70;;;;;;5001097;28;20630;-64
2024/03/11 01:42:11;;;;;;;24.33;23.13;;;21.90;51.80;;;;;;5016264;28;20488;-64
2024/03/11 01:44:39;;;;;;;24.67;23.57;;;21.90;51.80;;;;;;5012016;28;20450;-63
2024/03/11 01:47:06;;;;;;;24.90;23.80;;;21.90;51.80;;;;;;5012152;28;20553;-63
2024/03/11 01:49:36;;;;;;;25.20;23.80;;;21.90;51.80;;;;;;5012415;28;20505;-63
2024/03/11 01:52:03;;;;;;;26.10;24.80;;;21.90;51.90;;;;;;5012084;28;20473;-64
2024/03/11 01:54:31;;;;;;;25.13;24.10;;;21.90;51.90;;;;;;5012090;28;20469;-64
2024/03/11 01:57:01;;;;;;;26.20;25.10;;;21.90;51.90;;;;;;5012395;28;20553;-63
2024/03/11 01:59:32;;;;;;;25.33;24.23;;;21.90;52.00;;;;;;5004531;28;20472;-63
2024/03/11 02:01:58;;;;;;;26.30;25.20;;;21.90;52.00;;;;;;5003900;28;20492;-64
2024/03/11 02:04:26;;;;;;;25.83;24.73;;;21.90;52.00;;;;;;5012193;28;20450;-63
2024/03/11 02:06:53;;;;;;;26.53;25.33;;;21.80;52.40;;;;;;5011890;28;20462;-63
2024/03/11 02:09:19;;;;;;;27.33;26.13;;;21.80;51.90;;;;;;5011893;28;20442;-63
2024/03/11 02:11:47;;;;;;;25.83;24.73;;;21.90;52.00;;;;;;5012007;28;20442;-63
2024/03/11 02:14:14;;;;;;;25.73;24.63;;;21.90;52.00;;;;;;5012598;28;20800;-65
2024/03/11 02:16:42;;;;;;;25.90;24.80;;;21.90;52.00;;;;;;5011957;28;20942;-66
2024/03/11 02:19:12;;;;;;;24.07;23.07;;;21.80;52.00;;;;;;5011866;28;20442;-66
2024/03/11 02:21:46;;;;;;;25.10;24.10;;;21.80;52.00;;;;;;5013396;28;20478;-65
2024/03/11 02:24:15;;;;;;;25.20;24.17;;;21.80;52.00;;;;;;5011950;28;20457;-66
2024/03/11 02:26:45;;;;;;;26.07;24.87;;;21.80;52.10;;;;;;5005850;28;20885;-65
2024/03/11 02:29:12;;;;;;;25.83;24.63;;;21.80;52.10;;;;;;5001899;28;20513;-65
2024/03/11 02:31:38;;;;;;;25.33;24.33;;;21.80;52.10;;;;;;5012216;28;20430;-66
2024/03/11 02:34:05;;;;;;;26.57;25.40;;;21.80;52.10;;;;;;5011307;28;20449;-66
2024/03/11 02:36:32;;;;;;;25.33;24.23;;;21.80;52.10;;;;;;5011697;28;20878;-66
2024/03/11 02:38:59;;;;;;;25.93;24.83;;;21.80;52.10;;;;;;5011821;28;20450;-66
2024/03/11 02:41:29;;;;;;;27.27;26.13;;;21.80;52.20;;;;;;5011860;28;20450;-66
2024/03/11 02:43:56;;;;;;;26.00;24.80;;;21.80;52.20;;;;;;5017586;28;20481;-65
2024/03/11 02:46:23;;;;;;;25.83;24.73;;;21.80;52.20;;;;;;5000345;28;20983;-66
2024/03/11 02:48:50;;;;;;;26.10;24.90;;;21.80;52.20;;;;;;5000325;28;20533;-66
2024/03/11 02:51:17;;;;;;;26.00;24.90;;;21.80;52.20;;;;;;5015153;28;20449;-66
2024/03/11 02:53:44;;;;;;;26.27;25.07;;;21.80;52.20;;;;;;5011355;28;20796;-66
2024/03/11 02:56:11;;;;;;;24.77;23.77;;;21.80;52.20;;;;;;5011552;28;20466;-65
2024/03/11 02:58:39;;;;;;;26.83;25.33;;;21.80;52.20;;;;;;5011590;28;20529;-65
2024/03/11 03:01:06;;;;;;;29.70;28.40;;;21.80;52.20;;;;;;5013202;28;20950;-65
2024/03/11 03:03:34;;;;;;;25.27;24.17;;;21.80;52.30;;;;;;5011105;28;21060;-65
2024/03/11 03:06:01;;;;;;;25.93;24.83;;;21.80;52.30;;;;;;5011560;28;20466;-66
2024/03/11 03:08:28;;;;;;;25.00;23.80;;;21.80;52.20;;;;;;5003662;28;20491;-65
2024/03/11 03:10:55;;;;;;;24.53;23.50;;;21.80;52.30;;;;;;5003366;28;20450;-66
2024/03/11 03:13:21;;;;;;;25.07;23.77;;;21.80;52.30;;;;;;5003128;28;20548;-66
2024/03/11 03:15:49;;;;;;;24.87;23.77;;;21.80;52.30;;;;;;5005141;28;20474;-65
2024/03/11 03:18:16;;;;;;;25.77;24.67;;;21.80;52.40;;;;;;5001949;28;20447;-65
2024/03/11 03:20:44;;;;;;;26.67;25.40;;;21.80;52.40;;;;;;5003304;28;20927;-65
2024/03/11 03:23:11;;;;;;;25.40;24.13;;;21.80;52.40;;;;;;5012553;28;20859;-65
2024/03/11 03:25:38;;;;;;;25.27;24.20;;;21.80;52.50;;;;;;5011236;28;20470;-65
2024/03/11 03:28:05;;;;;;;25.13;24.13;;;21.80;52.40;;;;;;5002961;28;21005;-65
2024/03/11 03:30:32;;;;;;;25.00;23.90;;;21.80;52.50;;;;;;5016794;28;20453;-65
2024/03/11 03:33:01;;;;;;;25.37;24.27;;;21.80;52.50;;;;;;5010954;28;20446;-65
2024/03/11 03:35:28;;;;;;;25.43;24.33;;;21.80;52.50;;;;;;5003033;28;20502;-65
2024/03/11 03:37:55;;;;;;;25.60;24.50;;;21.80;52.50;;;;;;5003215;28;20450;-66
2024/03/11 03:40:23;;;;;;;25.53;24.33;;;21.80;52.50;;;;;;5010886;28;20450;-66
2024/03/11 03:42:51;;;;;;;25.47;24.20;;;21.80;52.50;;;;;;5003747;28;20572;-65
2024/03/11 03:45:19;;;;;;;25.90;24.70;;;21.80;52.50;;;;;;5004331;28;20975;-66
2024/03/11 03:47:47;;;;;;;25.00;23.80;;;21.80;52.50;;;;;;5003268;28;20439;-66
2024/03/11 03:50:15;;;;;;;25.17;24.13;;;21.80;52.50;;;;;;5012636;28;20908;-65
2024/03/11 03:52:42;;;;;;;25.90;24.80;;;21.80;52.50;;;;;;5006566;28;20442;-65
2024/03/11 03:55:11;;;;;;;26.37;25.23;;;21.80;52.50;;;;;;5005249;28;20446;-65
2024/03/11 03:57:38;;;;;;;25.53;24.33;;;21.80;53.10;;;;;;5003028;28;20454;-66
2024/03/11 04:00:06;;;;;;;24.87;23.87;;;21.80;52.60;;;;;;5002846;28;20447;-66
2024/03/11 04:02:33;;;;;;;26.40;25.30;;;21.80;52.60;;;;;;5025262;28;20478;-66
2024/03/11 04:05:02;;;;;;;25.70;24.70;;;21.80;52.60;;;;;;5014020;28;20446;-66
2024/03/11 04:07:30;;;;;;;27.67;26.50;;;21.80;52.60;;;;;;4997969;28;20466;-66
2024/03/11 04:09:57;;;;;;;26.10;24.90;;;21.80;52.60;;;;;;5006104;28;20448;-66
2024/03/11 04:12:23;;;;;;;26.80;25.50;;;21.80;52.60;;;;;;5003532;28;20451;-66
2024/03/11 04:14:51;;;;;;;27.10;25.60;;;21.80;52.60;;;;;;5014078;28;20807;-66
2024/03/11 04:17:17;;;;;;;25.17;24.07;;;21.80;52.60;;;;;;5013938;28;20983;-66
2024/03/11 04:19:44;;;;;;;25.83;24.73;;;21.80;53.20;;;;;;5014152;28;20542;-66
2024/03/11 04:22:12;;;;;;;25.37;24.27;;;21.80;52.60;;;;;;5020480;28;20512;-66
2024/03/11 04:24:41;;;;;;;26.70;25.50;;;21.80;52.70;;;;;;5020267;28;20500;-66
2024/03/11 04:27:11;;;;;;;26.10;25.00;;;21.80;52.60;;;;;;5005177;28;20983;-66
2024/03/11 04:29:37;;;;;;;26.07;24.97;;;21.80;52.70;;;;;;5002572;28;20501;-66
2024/03/11 04:32:06;;;;;;;25.23;24.20;;;21.70;52.60;;;;;;5017171;28;20456;-66
2024/03/11 04:34:34;;;;;;;26.60;25.50;;;21.80;52.70;;;;;;5005761;28;20488;-66
2024/03/11 04:37:00;;;;;;;25.97;24.90;;;21.80;52.70;;;;;;5005584;28;20493;-66
2024/03/11 04:39:27;;;;;;;26.07;25.07;;;21.80;52.70;;;;;;5002631;28;20727;-66
2024/03/11 04:41:55;;;;;;;26.80;25.50;;;21.70;52.60;;;;;;5002230;28;20831;-66
2024/03/11 04:44:22;;;;;;;26.20;25.00;;;21.70;52.60;;;;;;5012141;28;20505;-66
2024/03/11 04:46:49;;;;;;;26.53;25.33;;;21.70;52.60;;;;;;5013565;28;20462;-66
2024/03/11 04:49:19;;;;;;;27.13;26.03;;;21.80;52.80;;;;;;5013369;28;20442;-66
2024/03/11 04:51:46;;;;;;;26.67;25.47;;;21.70;52.70;;;;;;5013396;28;20454;-66
2024/03/11 04:54:16;;;;;;;27.23;25.93;;;21.70;52.70;;;;;;5011839;28;20442;-66
2024/03/11 04:56:43;;;;;;;26.30;25.10;;;21.80;52.80;;;;;;5022076;28;20470;-66
2024/03/11 04:59:12;;;;;;;26.43;25.33;;;21.80;52.80;;;;;;5013159;28;20446;-66
2024/03/11 05:01:39;;;;;;;28.30;27.03;;;21.80;52.80;;;;;;5013180;28;20500;-66
2024/03/11 05:04:05;;;;;;;27.93;26.73;;;21.80;52.80;;;;;;5012803;28;20477;-66
2024/03/11 05:06:32;;;;;;;27.67;26.37;;;21.80;52.90;;;;;;5005002;28;20455;-66
2024/03/11 05:08:59;;;;;;;29.30;27.67;;;21.80;52.90;;;;;;5013250;28;20468;-66
2024/03/11 05:11:26;;;;;;;32.63;31.20;;;21.80;52.90;;;;;;5002481;28;20450;-66
2024/03/11 05:13:54;;;;;;;27.53;26.30;;;21.80;52.90;;;;;;5001138;28;20533;-66
2024/03/11 05:16:22;;;;;;;28.50;27.17;;;21.80;52.90;;;;;;5003223;28;21007;-66
2024/03/11 05:18:50;;;;;;;27.47;26.27;;;21.80;53.00;;;;;;5005006;28;20533;-66
2024/03/11 05:21:16;;;;;;;26.60;25.43;;;21.80;53.00;;;;;;5014964;28;20823;-66
2024/03/11 05:23:43;;;;;;;26.93;25.83;;;21.80;53.00;;;;;;5012343;28;20482;-66
2024/03/11 05:26:10;;;;;;;28.93;27.63;;;21.80;53.00;;;;;;5012501;28;20997;-66
2024/03/11 05:28:37;;;;;;;27.30;26.10;;;21.80;53.00;;;;;;5007421;28;20529;-66
2024/03/11 05:31:04;;;;;;;27.07;25.90;;;21.80;53.00;;;;;;5012695;28;20442;-66
2024/03/11 05:33:33;;;;;;;27.07;25.87;;;21.80;53.10;;;;;;5004074;28;20961;-66
2024/03/11 05:36:00;;;;;;;28.17;26.87;;;21.80;53.10;;;;;;5004539;28;20470;-66
2024/03/11 05:38:27;;;;;;;28.47;27.07;;;21.80;53.20;;;;;;5012657;28;20442;-66
2024/03/11 05:40:54;;;;;;;37.37;35.77;;;21.80;53.10;;;;;;5004362;28;20450;-66
2024/03/11 05:43:22;;;;;;;35.60;34.10;;;21.90;53.10;;;;;;5002469;28;20481;-66
2024/03/11 05:45:49;;;;;;;37.73;36.23;;;21.90;53.10;;;;;;5000926;28;21058;-66
2024/03/11 05:48:18;;;;;;;36.90;35.40;;;21.90;53.00;;;;;;5001597;28;20503;-66
2024/03/11 05:50:48;;;;;;;38.93;37.33;;;21.90;53.00;;;;;;5012480;28;21006;-66
2024/03/11 05:53:16;;;;;;;36.70;34.87;;;21.90;53.20;;;;;;5012018;28;20453;-66
2024/03/11 05:55:43;;;;;;;30.60;29.20;;;21.90;53.60;;;;;;5012199;28;20465;-66
2024/03/11 05:58:14;;;;;;;32.60;30.60;;;21.90;53.90;;;;;;5012275;28;20443;-66
2024/03/11 06:00:46;;;;;;;33.20;31.00;;;22.00;54.80;;;;;;5012271;28;20474;-66
2024/03/11 06:03:12;;;;;;;31.57;28.97;;;22.00;55.80;;;;;;5011312;28;20537;-66
2024/03/11 06:05:39;;;;;;;31.37;29.20;;;22.00;56.00;;;;;;5000029;28;20470;-66
2024/03/11 06:08:08;;;;;;;29.83;27.50;;;22.00;56.50;;;;;;5000446;28;20458;-66
2024/03/11 06:10:35;;;;;;;32.10;29.20;;;22.00;56.30;;;;;;5011562;28;20816;-66
2024/03/11 06:13:02;;;;;;;31.03;28.93;;;22.00;56.10;;;;;;5011513;28;20442;-66
2024/03/11 06:15:29;;;;;;;30.43;28.57;;;22.00;56.10;;;;;;5011632;28;20962;-66
2024/03/11 06:17:56;;;;;;;28.00;26.60;;;22.00;55.90;;;;;;5011994;28;20477;-66
2024/03/11 06:20:23;;;;;;;28.57;26.57;;;22.00;55.80;;;;;;5011639;28;20455;-66
2024/03/11 06:22:50;;;;;;;29.03;27.10;;;22.00;55.60;;;;;;5011668;28;20489;-66
2024/03/11 06:25:20;;;;;;;27.73;26.23;;;22.00;55.50;;;;;;5011112;28;20525;-66
2024/03/11 06:27:49;;;;;;;30.90;28.90;;;22.10;55.40;;;;;;5011865;28;20828;-66
2024/03/11 06:30:16;;;;;;;29.73;28.13;;;22.10;55.20;;;;;;5011462;28;21065;-66
2024/03/11 06:32:45;;;;;;;30.13;28.53;;;22.10;55.10;;;;;;5003502;28;20450;-66
2024/03/11 06:35:13;;;;;;;28.57;26.97;;;22.10;54.90;;;;;;5003178;28;20454;-66
2024/03/11 06:37:43;;;;;;;27.33;25.83;;;22.10;54.80;;;;;;5003498;28;20496;-66
2024/03/11 06:40:11;;;;;;;29.23;27.53;;;22.10;54.60;;;;;;5003431;28;20496;-66
2024/03/11 06:42:39;;;;;;;27.53;25.87;;;22.10;54.50;;;;;;5011357;28;20966;-66
2024/03/11 06:45:07;;;;;;;27.93;26.10;;;22.10;54.40;;;;;;5011326;28;20453;-66
2024/03/11 06:47:34;;;;;;;28.30;26.57;;;22.10;54.30;;;;;;5000162;28;20458;-66
2024/03/11 06:50:01;;;;;;;28.27;26.77;;;22.10;54.20;;;;;;5000048;28;20443;-66
2024/03/11 06:52:28;;;;;;;28.27;26.60;;;22.20;54.10;;;;;;5002045;28;20525;-66
2024/03/11 06:54:55;;;;;;;28.23;26.93;;;22.20;54.00;;;;;;5002921;28;20442;-66
2024/03/11 06:57:22;;;;;;;30.43;28.90;;;22.20;53.90;;;;;;5001878;28;21001;-66
2024/03/11 06:59:50;;;;;;;27.50;26.20;;;22.20;53.80;;;;;;4999915;28;20447;-66
2024/03/11 07:02:20;;;;;;;28.57;27.20;;;22.20;53.80;;;;;;5000398;28;20442;-66
2024/03/11 07:04:47;;;;;;;28.17;26.57;;;22.20;53.60;;;;;;5011158;28;20480;-66
2024/03/11 07:07:15;;;;;;;28.43;27.13;;;22.20;53.50;;;;;;5011612;28;20851;-66
2024/03/11 07:09:44;;;;;;;28.90;27.50;;;22.20;53.50;;;;;;5012032;28;20457;-66
2024/03/11 07:12:11;;;;;;;29.20;27.60;;;22.20;53.40;;;;;;5011931;28;20450;-66
2024/03/11 07:14:38;;;;;;;30.30;28.73;;;22.20;53.30;;;;;;5003283;28;20523;-66
2024/03/11 07:17:07;;;;;;;28.30;26.90;;;22.20;53.30;;;;;;5003372;28;20528;-65
2024/03/11 07:19:33;;;;;;;30.17;28.87;;;22.30;53.20;;;;;;5004307;28;20833;-66
2024/03/11 07:22:01;;;;;;;30.97;29.43;;;22.30;53.20;;;;;;5003606;28;20450;-66
2024/03/11 07:24:28;;;;;;;29.87;28.37;;;22.30;53.10;;;;;;5005043;28;20230;-66
2024/03/11 07:26:55;;;;;;;29.40;28.07;;;22.30;53.10;;;;;;5006794;28;21014;-66
2024/03/11 07:29:22;;;;;;;28.40;27.00;;;22.30;53.00;;;;;;5005771;28;20775;-66
2024/03/11 07:31:49;;;;;;;30.20;28.60;;;22.30;52.90;;;;;;5003563;28;20466;-66
2024/03/11 07:34:18;;;;;;;30.43;28.83;;;22.30;52.80;;;;;;5002950;28;20442;-66
2024/03/11 07:36:45;;;;;;;29.37;27.77;;;22.30;52.80;;;;;;5015039;28;20846;-66
2024/03/11 07:39:12;;;;;;;30.17;28.77;;;22.30;52.80;;;;;;5014935;28;20468;-66
2024/03/11 07:41:39;;;;;;;30.10;28.70;;;22.30;52.70;;;;;;5006638;28;20453;-66
2024/03/11 07:44:08;;;;;;;30.63;29.30;;;22.40;52.70;;;;;;5006261;28;20482;-66
2024/03/11 07:46:35;;;;;;;30.07;28.50;;;22.40;52.60;;;;;;5003807;28;20971;-66
2024/03/11 07:49:02;;;;;;;31.83;30.30;;;22.40;52.60;;;;;;5003204;28;20450;-66
2024/03/11 07:51:31;;;;;;;29.33;27.93;;;22.40;52.50;;;;;;5004742;28;20509;-66
2024/03/11 07:53:58;;;;;;;30.90;29.27;;;22.40;52.50;;;;;;5006024;28;20529;-66
2024/03/11 07:56:25;;;;;;;30.20;28.70;;;22.40;52.50;;;;;;5005207;28;20470;-66
2024/03/11 07:58:52;;;;;;;29.70;28.23;;;22.40;52.40;;;;;;5002932;28;20478;-66
2024/03/11 08:01:21;;;;;;;30.47;28.97;;;22.40;52.30;;;;;;5003184;28;20443;-66
2024/03/11 08:03:48;;;;;;;29.33;27.73;;;22.40;52.30;;;;;;5005797;28;20493;-66
2024/03/11 08:06:18;;;;;;;30.20;28.80;;;22.40;52.30;;;;;;5006313;28;20474;-66
2024/03/11 08:08:46;;;;;;;30.20;28.80;;;22.40;52.20;;;;;;5006468;28;20521;-66
2024/03/11 08:11:13;;;;;;;29.77;28.30;;;22.40;52.20;;;;;;5014343;28;20446;-63
2024/03/11 08:13:41;;;;;;;30.67;29.27;;;22.40;52.10;;;;;;5002625;28;20940;-64
2024/03/11 08:16:11;;;;;;;28.67;27.43;;;22.40;52.10;;;;;;5002725;28;20462;-63
2024/03/11 08:18:42;;;;;;;30.00;28.70;;;22.40;52.00;;;;;;5005592;28;20824;-63
2024/03/11 08:21:10;;;;;;;31.10;29.80;;;22.50;52.10;;;;;;5014053;28;20442;-64
2024/03/11 08:23:37;;;;;;;28.70;27.30;;;22.40;52.00;;;;;;5013495;28;23142;-63
2024/03/11 08:26:07;;;;;;;29.73;28.00;;;22.50;52.00;;;;;;5007321;28;20903;-63
2024/03/11 08:28:38;;;;;;;29.20;27.90;;;22.50;51.90;;;;;;5004346;28;20498;-64
2024/03/11 08:31:07;;;;;;;29.00;27.70;;;22.50;51.90;;;;;;5013731;28;20446;-63
2024/03/11 08:33:34;;;;;;;29.83;28.20;;;22.50;51.90;;;;;;5013341;28;20867;-63
2024/03/11 08:36:03;;;;;;;30.63;29.43;;;22.50;51.90;;;;;;5013645;28;20523;-63
2024/03/11 08:38:31;;;;;;;29.70;28.40;;;22.50;51.80;;;;;;5013698;28;20477;-63
2024/03/11 08:40:59;;;;;;;29.90;28.60;;;22.50;51.80;;;;;;5013675;28;20533;-63
2024/03/11 08:43:27;;;;;;;31.03;29.53;;;22.50;51.80;;;;;;5003983;28;20978;-63
2024/03/11 08:45:56;;;;;;;30.30;28.90;;;22.50;51.70;;;;;;5001959;28;20474;-64
2024/03/11 08:48:22;;;;;;;29.10;27.90;;;22.50;51.70;;;;;;5002669;28;20498;-63
2024/03/11 08:50:49;;;;;;;30.30;28.90;;;22.60;51.70;;;;;;5013490;28;20442;-64
2024/03/11 08:53:16;;;;;;;30.47;29.27;;;22.50;51.60;;;;;;5013086;28;20446;-63
2024/03/11 08:55:43;;;;;;;28.93;27.73;;;22.50;51.60;;;;;;5002026;28;20493;-64
2024/03/11 08:58:12;;;;;;;28.20;27.00;;;22.50;51.60;;;;;;5002105;28;20443;-64
2024/03/11 09:00:40;;;;;;;29.13;27.93;;;22.60;51.60;;;;;;5004430;28;20447;-63
2024/03/11 09:03:08;;;;;;;27.70;26.50;;;22.60;51.60;;;;;;5012913;28;20489;-64
2024/03/11 09:05:35;;;;;;;28.40;27.17;;;22.60;51.50;;;;;;5012917;28;20478;-64
2024/03/11 09:08:03;;;;;;;28.70;26.93;;;22.60;51.50;;;;;;5013129;28;20446;-64
2024/03/11 09:10:31;;;;;;;31.20;29.73;;;22.60;51.50;;;;;;5012859;28;20541;-63
2024/03/11 09:12:58;;;;;;;30.63;29.43;;;22.60;51.40;;;;;;5013016;28;20797;-63
2024/03/11 09:15:25;;;;;;;29.93;28.63;;;22.60;51.40;;;;;;5012692;28;20450;-63
2024/03/11 09:17:54;;;;;;;32.80;31.40;;;22.60;51.40;;;;;;5012835;28;20954;-63
2024/03/11 09:20:27;;;;;;;32.17;30.77;;;22.60;51.40;;;;;;5012644;28;20452;-64
2024/03/11 09:22:56;;;;;;;32.07;30.80;;;22.60;51.90;;;;;;5004847;28;20454;-64
2024/03/11 09:25:24;;;;;;;31.30;30.00;;;22.60;51.30;;;;;;5011504;28;20532;-64
2024/03/11 09:27:53;;;;;;;31.13;29.90;;;22.60;51.30;;;;;;5001431;28;20781;-64
2024/03/11 09:30:20;;;;;;;31.70;30.30;;;22.60;51.30;;;;;;5001028;28;20851;-64
2024/03/11 09:32:49;;;;;;;31.73;30.43;;;22.60;51.40;;;;;;5012574;28;20446;-64
2024/03/11 09:35:18;;;;;;;31.20;29.90;;;22.60;51.20;;;;;;5012025;28;20526;-64
2024/03/11 09:37:46;;;;;;;32.27;30.87;;;22.60;51.20;;;;;;5004180;28;20443;-64
2024/03/11 09:40:16;;;;;;;30.33;29.23;;;22.60;51.10;;;;;;5003827;28;20451;-64
2024/03/11 09:42:46;;;;;;;30.40;29.20;;;22.60;51.10;;;;;;5012380;28;20458;-64
2024/03/11 09:45:17;;;;;;;29.43;28.27;;;22.60;51.10;;;;;;5011965;28;20474;-64
2024/03/11 09:47:51;;;;;;;30.37;29.17;;;22.60;51.10;;;;;;5012253;28;20438;-64
2024/03/11 09:50:26;;;;;;;30.07;28.83;;;22.60;51.10;;;;;;5004307;28;20442;-64
2024/03/11 09:52:56;;;;;;;30.67;29.40;;;22.60;51.10;;;;;;5005134;28;20451;-63
2024/03/11 09:55:24;;;;;;;29.70;28.50;;;22.60;51.10;;;;;;5003220;28;20943;-63
2024/03/11 09:57:53;;;;;;;30.40;29.20;;;22.60;51.00;;;;;;5000700;28;20451;-64
2024/03/11 10:00:27;;;;;;;29.50;28.30;;;22.60;51.00;;;;;;5000739;28;20839;-64
2024/03/11 10:02:58;;;;;;;30.90;29.60;;;22.60;51.00;;;;;;5005088;28;20450;-64
2024/03/11 10:05:27;;;;;;;29.17;27.83;;;22.60;51.00;;;;;;5011778;28;20485;-64
2024/03/11 10:07:54;;;;;;;28.33;27.23;;;22.60;50.90;;;;;;5012030;28;20485;-64
2024/03/11 10:10:24;;;;;;;29.93;28.73;;;22.60;51.00;;;;;;5012041;28;20452;-64
2024/03/11 10:12:52;;;;;;;28.40;27.30;;;22.60;51.00;;;;;;5004191;28;20446;-64
2024/03/11 10:15:30;;;;;;;31.40;30.10;;;22.60;50.90;;;;;;5003442;28;20442;-64
2024/03/11 10:18:01;;;;;;;28.37;27.27;;;22.60;50.90;;;;;;5005016;28;20453;-64
2024/03/11 10:20:34;;;;;;;28.53;27.43;;;22.70;51.60;;;;;;5003050;28;20450;-64
2024/03/11 10:23:09;;;;;;;29.30;28.10;;;22.60;50.90;;;;;;5000161;28;20807;-64
2024/03/11 10:25:40;;;;;;;29.37;28.07;;;22.60;50.90;;;;;;5001621;28;20482;-64
2024/03/11 10:28:06;;;;;;;30.10;28.90;;;22.60;50.90;;;;;;5011946;28;20606;-64
2024/03/11 10:30:33;;;;;;;28.90;27.67;;;22.60;50.90;;;;;;5011567;28;20446;-63
2024/03/11 10:33:02;;;;;;;29.63;28.43;;;22.60;50.90;;;;;;5011350;28;20454;-64
2024/03/11 10:35:33;;;;;;;28.17;27.07;;;22.60;50.90;;;;;;5011544;28;20814;-64
2024/03/11 10:38:08;;;;;;;28.20;27.10;;;22.70;50.90;;;;;;5011842;28;20454;-64
2024/03/11 10:40:37;;;;;;;29.60;28.40;;;22.70;50.90;;;;;;5011466;28;20722;-64
2024/03/11 10:43:20;;;;;;;29.17;27.97;;;22.70;50.90;;;;;;5011282;28;20879;-64
2024/03/11 10:45:48;;;;;;;27.63;26.53;;;22.70;50.90;;;;;;5011178;28;20532;-64
2024/03/11 10:48:15;;;;;;;29.13;27.93;;;22.60;50.80;;;;;;5011548;28;20965;-64
2024/03/11 10:50:43;;;;;;;28.30;27.20;;;22.70;50.80;;;;;;5011329;28;20442;-64
2024/03/11 10:53:20;;;;;;;28.97;27.80;;;22.70;50.80;;;;;;5014068;28;20442;-64
2024/03/11 10:55:54;;;;;;;29.23;27.97;;;22.70;50.80;;;;;;5015342;28;20474;-63
2024/03/11 10:58:25;;;;;;;27.67;26.57;;;22.70;50.80;;;;;;5007443;28;20939;-63
2024/03/11 11:00:54;;;;;;;28.40;27.30;;;22.70;50.80;;;;;;5007618;28;20521;-63
2024/03/11 11:03:23;;;;;;;29.90;28.70;;;22.70;50.80;;;;;;5015081;28;20950;-63
2024/03/11 11:06:00;;;;;;;31.47;30.27;;;22.70;50.80;;;;;;5015431;28;20568;-64
2024/03/11 11:08:30;;;;;;;28.80;27.60;;;22.70;50.70;;;;;;5006790;28;20475;-63
2024/03/11 11:10:59;;;;;;;28.53;27.43;;;22.70;50.70;;;;;;5003741;28;20443;-64
2024/03/11 11:13:29;;;;;;;27.73;26.63;;;22.70;50.70;;;;;;5003295;28;20449;-63
2024/03/11 11:15:58;;;;;;;28.53;27.43;;;22.70;50.70;;;;;;5006885;28;20528;-64
2024/03/11 11:18:28;;;;;;;29.50;28.30;;;22.70;50.60;;;;;;5006869;28;20449;-64
2024/03/11 11:20:56;;;;;;;30.10;28.87;;;22.70;50.60;;;;;;5007437;28;20438;-63
2024/03/11 11:23:28;;;;;;;27.93;26.83;;;22.70;50.60;;;;;;5014787;28;20445;-63
2024/03/11 11:25:56;;;;;;;29.80;28.60;;;22.70;50.60;;;;;;5006947;28;20473;-63
2024/03/11 11:28:28;;;;;;;29.57;28.27;;;22.70;50.60;;;;;;5014810;28;20449;-63
2024/03/11 11:31:11;;;;;;;30.73;29.43;;;22.70;50.60;;;;;;5007113;28;20450;-63
2024/03/11 11:33:56;;;;;;;28.00;26.90;;;22.70;51.10;;;;;;5004568;28;20452;-63
2024/03/11 11:37:02;;;;;;;29.83;28.63;;;22.70;50.50;;;;;;5003163;28;20545;-63
2024/03/11 11:39:35;;;;;;;29.30;28.20;;;22.70;50.50;;;;;;5011378;28;20441;-63
2024/03/11 11:42:02;;;;;;;29.30;28.10;;;22.70;50.50;;;;;;5014622;28;20442;-63
2024/03/11 11:44:49;;;;;;;28.07;26.97;;;22.70;50.50;;;;;;5013985;28;20484;-63
2024/03/11 11:47:21;;;;;;;29.40;28.20;;;22.70;50.50;;;;;;5014353;28;20476;-63
2024/03/11 11:49:48;;;;;;;29.37;28.17;;;22.70;50.50;;;;;;5003649;28;21070;-63
2024/03/11 11:52:18;;;;;;;30.03;28.80;;;22.70;50.50;;;;;;5002989;28;20453;-63
2024/03/11 11:54:46;;;;;;;29.03;27.83;;;22.70;50.50;;;;;;5005061;28;20443;-63
2024/03/11 11:57:15;;;;;;;30.13;28.93;;;22.70;50.50;;;;;;5006188;28;20512;-63
2024/03/11 11:59:44;;;;;;;29.90;28.70;;;22.70;50.50;;;;;;5014436;28;20548;-63
2024/03/11 12:02:20;;;;;;;29.80;28.60;;;22.70;50.50;;;;;;5014428;28;20446;-64
2024/03/11 12:04:48;;;;;;;29.30;28.10;;;22.70;50.50;;;;;;5013305;28;20485;-63
2024/03/11 12:07:22;;;;;;;29.53;28.43;;;22.80;50.60;;;;;;5014524;28;20461;-63
2024/03/11 12:09:51;;;;;;;28.73;27.53;;;22.70;50.50;;;;;;5003281;28;20470;-63
2024/03/11 12:12:27;;;;;;;28.73;27.63;;;22.80;50.50;;;;;;5002830;28;20447;-63
2024/03/11 12:14:54;;;;;;;28.57;27.43;;;22.80;50.60;;;;;;5005935;28;20939;-63
2024/03/11 12:17:24;;;;;;;29.13;28.03;;;22.80;50.60;;;;;;5014107;28;20553;-63
2024/03/11 12:20:14;;;;;;;28.90;27.70;;;22.80;50.60;;;;;;5013946;28;20473;-63
2024/03/11 12:22:43;;;;;;;29.27;28.10;;;22.80;50.50;;;;;;5014015;28;20936;-64
2024/03/11 12:25:13;;;;;;;29.97;28.87;;;22.80;50.50;;;;;;5005660;28;20998;-63
2024/03/11 12:27:41;;;;;;;31.30;30.10;;;22.80;50.50;;;;;;5013822;28;20927;-63
2024/03/11 12:30:14;;;;;;;31.97;30.77;;;22.80;50.50;;;;;;5013972;28;20445;-64
2024/03/11 12:32:41;;;;;;;29.90;28.70;;;22.80;50.50;;;;;;5013829;28;20450;-63
2024/03/11 12:35:12;;;;;;;30.60;29.40;;;22.80;50.40;;;;;;5013581;28;20434;-64